sensor_id;sensor_type;location;lat;lon;timestamp;pressure;altitude;pressure_sealevel;temperature;humidity
49397;BME280;35615;41.410;2.194;2022-12-11T00:00:48;100874.81;;;11.94;30.74
49397;BME280;35615;41.410;2.194;2022-12-11T00:03:15;100870.06;;;11.81;31.21
49397;BME280;35615;41.410;2.194;2022-12-11T00:05:43;100870.47;;;11.69;30.69
49397;BME280;35615;41.410;2.194;2022-12-11T00:08:11;100863.16;;;11.81;31.35
49397;BME280;35615;41.410;2.194;2022-12-11T00:10:38;100869.69;;;11.96;32.22
49397;BME280;35615;41.410;2.194;2022-12-11T00:13:05;100862.66;;;11.68;31.56
49397;BME280;35615;41.410;2.194;2022-12-11T00:15:32;100876.81;;;11.53;30.21
49397;BME280;35615;41.410;2.194;2022-12-11T00:17:59;100872.72;;;11.60;30.19
49397;BME280;35615;41.410;2.194;2022-12-11T00:20:26;100871.03;;;11.60;30.18
49397;BME280;35615;41.410;2.194;2022-12-11T00:22:54;100864.88;;;11.81;30.75
49397;BME280;35615;41.410;2.194;2022-12-11T00:25:22;100861.47;;;11.82;30.39
49397;BME280;35615;41.410;2.194;2022-12-11T00:27:51;100876.25;;;11.62;31.02
49397;BME280;35615;41.410;2.194;2022-12-11T00:30:18;100872.38;;;11.75;31.26
49397;BME280;35615;41.410;2.194;2022-12-11T00:32:45;100869.31;;;11.61;30.96
49397;BME280;35615;41.410;2.194;2022-12-11T00:35:12;100851.84;;;11.54;30.79
49397;BME280;35615;41.410;2.194;2022-12-11T00:37:39;100851.63;;;11.73;31.37
49397;BME280;35615;41.410;2.194;2022-12-11T00:40:06;100855.25;;;11.53;31.37
49397;BME280;35615;41.410;2.194;2022-12-11T00:42:34;100855.88;;;11.47;30.54
49397;BME280;35615;41.410;2.194;2022-12-11T00:45:01;100847.84;;;11.40;30.76
49397;BME280;35615;41.410;2.194;2022-12-11T00:47:28;100851.34;;;11.42;30.87
49397;BME280;35615;41.410;2.194;2022-12-11T00:49:55;100846.38;;;11.46;30.91
49397;BME280;35615;41.410;2.194;2022-12-11T00:52:22;100849.41;;;11.34;30.72
49397;BME280;35615;41.410;2.194;2022-12-11T00:54:50;100843.84;;;11.48;30.95
49397;BME280;35615;41.410;2.194;2022-12-11T00:57:17;100847.34;;;11.26;31.16
49397;BME280;35615;41.410;2.194;2022-12-11T00:59:44;100851.75;;;11.28;31.59
49397;BME280;35615;41.410;2.194;2022-12-11T01:02:11;100847.06;;;11.18;31.15
49397;BME280;35615;41.410;2.194;2022-12-11T01:04:39;100854.47;;;11.31;31.53
49397;BME280;35615;41.410;2.194;2022-12-11T01:07:06;100843.88;;;11.25;31.71
49397;BME280;35615;41.410;2.194;2022-12-11T01:09:34;100845.03;;;11.10;31.23
49397;BME280;35615;41.410;2.194;2022-12-11T01:12:20;100836.50;;;11.12;31.39
49397;BME280;35615;41.410;2.194;2022-12-11T01:14:47;100828.31;;;11.24;31.49
49397;BME280;35615;41.410;2.194;2022-12-11T01:17:14;100819.19;;;11.33;31.31
49397;BME280;35615;41.410;2.194;2022-12-11T01:19:41;100820.84;;;11.31;31.08
49397;BME280;35615;41.410;2.194;2022-12-11T01:22:08;100821.47;;;11.02;31.45
49397;BME280;35615;41.410;2.194;2022-12-11T01:24:35;100815.00;;;11.13;31.46
49397;BME280;35615;41.410;2.194;2022-12-11T01:27:03;100811.72;;;11.19;31.44
49397;BME280;35615;41.410;2.194;2022-12-11T01:29:31;100817.63;;;11.15;31.62
49397;BME280;35615;41.410;2.194;2022-12-11T01:31:58;100829.34;;;11.05;31.68
49397;BME280;35615;41.410;2.194;2022-12-11T01:34:27;100830.97;;;11.03;32.18
49397;BME280;35615;41.410;2.194;2022-12-11T01:36:55;100828.22;;;11.21;31.67
49397;BME280;35615;41.410;2.194;2022-12-11T01:39:22;100818.34;;;11.34;32.07
49397;BME280;35615;41.410;2.194;2022-12-11T01:41:49;100824.50;;;11.14;31.73
49397;BME280;35615;41.410;2.194;2022-12-11T01:46:43;100836.47;;;11.34;31.41
49397;BME280;35615;41.410;2.194;2022-12-11T01:49:11;100857.59;;;11.23;31.61
49397;BME280;35615;41.410;2.194;2022-12-11T01:51:42;100851.34;;;11.42;31.70
49397;BME280;35615;41.410;2.194;2022-12-11T01:54:12;100855.84;;;11.46;31.43
49397;BME280;35615;41.410;2.194;2022-12-11T01:56:41;100863.75;;;11.50;31.18
49397;BME280;35615;41.410;2.194;2022-12-11T02:01:45;100868.72;;;11.44;31.39
49397;BME280;35615;41.410;2.194;2022-12-11T02:04:14;100860.31;;;11.27;31.63
49397;BME280;35615;41.410;2.194;2022-12-11T02:06:44;100858.31;;;11.43;31.82
49397;BME280;35615;41.410;2.194;2022-12-11T02:09:13;100871.78;;;11.34;31.55
49397;BME280;35615;41.410;2.194;2022-12-11T02:11:49;100871.75;;;11.32;31.84
49397;BME280;35615;41.410;2.194;2022-12-11T02:15:06;100875.16;;;11.31;31.72
49397;BME280;35615;41.410;2.194;2022-12-11T02:17:13;100862.72;;;11.45;32.09
49397;BME280;35615;41.410;2.194;2022-12-11T02:25:24;100849.94;;;11.26;32.57
49397;BME280;35615;41.410;2.194;2022-12-11T02:30:44;100851.69;;;11.27;33.19
49397;BME280;35615;41.410;2.194;2022-12-11T02:33:14;100846.56;;;11.28;33.30
49397;BME280;35615;41.410;2.194;2022-12-11T02:35:42;100838.59;;;11.22;33.93
49397;BME280;35615;41.410;2.194;2022-12-11T02:38:22;100828.25;;;11.22;33.72
49397;BME280;35615;41.410;2.194;2022-12-11T02:40:51;100839.28;;;11.18;33.49
49397;BME280;35615;41.410;2.194;2022-12-11T02:43:19;100836.81;;;10.97;33.77
49397;BME280;35615;41.410;2.194;2022-12-11T02:45:49;100840.25;;;11.20;33.82
49397;BME280;35615;41.410;2.194;2022-12-11T02:48:17;100845.53;;;11.23;33.85
49397;BME280;35615;41.410;2.194;2022-12-11T02:50:50;100838.72;;;11.25;34.03
49397;BME280;35615;41.410;2.194;2022-12-11T02:53:19;100835.78;;;11.16;34.03
49397;BME280;35615;41.410;2.194;2022-12-11T02:55:51;100834.31;;;11.23;33.77
49397;BME280;35615;41.410;2.194;2022-12-11T02:58:24;100823.47;;;11.33;34.18
49397;BME280;35615;41.410;2.194;2022-12-11T03:00:53;100812.25;;;11.32;34.36
49397;BME280;35615;41.410;2.194;2022-12-11T03:03:20;100805.44;;;11.34;34.12
49397;BME280;35615;41.410;2.194;2022-12-11T03:05:48;100809.38;;;11.25;33.86
49397;BME280;35615;41.410;2.194;2022-12-11T03:08:15;100806.13;;;11.30;33.84
49397;BME280;35615;41.410;2.194;2022-12-11T03:10:44;100804.25;;;11.26;33.80
49397;BME280;35615;41.410;2.194;2022-12-11T03:13:12;100810.25;;;11.25;34.12
49397;BME280;35615;41.410;2.194;2022-12-11T03:15:43;100802.56;;;11.03;34.26
49397;BME280;35615;41.410;2.194;2022-12-11T03:18:15;100797.44;;;11.28;33.50
49397;BME280;35615;41.410;2.194;2022-12-11T03:25:52;100805.03;;;11.00;33.94
49397;BME280;35615;41.410;2.194;2022-12-11T03:28:31;100808.25;;;10.94;33.80
49397;BME280;35615;41.410;2.194;2022-12-11T03:31:06;100813.94;;;10.63;33.92
49397;BME280;35615;41.410;2.194;2022-12-11T03:33:36;100821.16;;;10.94;34.02
49397;BME280;35615;41.410;2.194;2022-12-11T03:36:06;100816.53;;;10.86;33.98
49397;BME280;35615;41.410;2.194;2022-12-11T03:38:40;100807.72;;;11.03;34.19
49397;BME280;35615;41.410;2.194;2022-12-11T03:41:09;100805.72;;;10.96;34.14
49397;BME280;35615;41.410;2.194;2022-12-11T03:43:39;100813.91;;;11.08;33.87
49397;BME280;35615;41.410;2.194;2022-12-11T03:46:06;100814.84;;;11.09;33.74
49397;BME280;35615;41.410;2.194;2022-12-11T03:48:35;100815.63;;;11.07;33.78
49397;BME280;35615;41.410;2.194;2022-12-11T03:51:05;100806.13;;;11.06;34.57
49397;BME280;35615;41.410;2.194;2022-12-11T03:53:33;100811.34;;;11.08;34.14
49397;BME280;35615;41.410;2.194;2022-12-11T03:56:01;100808.22;;;10.70;34.35
49397;BME280;35615;41.410;2.194;2022-12-11T03:58:28;100809.84;;;10.68;34.45
49397;BME280;35615;41.410;2.194;2022-12-11T04:00:55;100803.03;;;10.70;34.68
49397;BME280;35615;41.410;2.194;2022-12-11T04:03:25;100794.25;;;10.88;34.88
49397;BME280;35615;41.410;2.194;2022-12-11T04:05:53;100790.09;;;10.93;34.48
49397;BME280;35615;41.410;2.194;2022-12-11T04:08:23;100803.84;;;10.92;34.83
49397;BME280;35615;41.410;2.194;2022-12-11T04:10:53;100816.84;;;10.71;34.56
49397;BME280;35615;41.410;2.194;2022-12-11T04:13:39;100814.97;;;10.89;35.27
49397;BME280;35615;41.410;2.194;2022-12-11T04:16:07;100815.94;;;10.93;34.90
49397;BME280;35615;41.410;2.194;2022-12-11T04:18:34;100824.53;;;10.92;35.50
49397;BME280;35615;41.410;2.194;2022-12-11T04:21:22;100808.94;;;11.13;34.80
49397;BME280;35615;41.410;2.194;2022-12-11T04:24:08;100806.25;;;11.10;34.89
49397;BME280;35615;41.410;2.194;2022-12-11T04:26:44;100799.25;;;11.07;34.81
49397;BME280;35615;41.410;2.194;2022-12-11T04:29:12;100797.28;;;11.00;35.36
49397;BME280;35615;41.410;2.194;2022-12-11T04:31:39;100804.50;;;10.64;35.37
49397;BME280;35615;41.410;2.194;2022-12-11T04:34:07;100792.69;;;10.93;35.21
49397;BME280;35615;41.410;2.194;2022-12-11T04:36:34;100788.97;;;10.86;35.33
49397;BME280;35615;41.410;2.194;2022-12-11T04:39:02;100795.69;;;10.81;35.15
49397;BME280;35615;41.410;2.194;2022-12-11T04:41:29;100796.63;;;10.83;35.30
49397;BME280;35615;41.410;2.194;2022-12-11T04:43:59;100791.88;;;10.49;35.45
49397;BME280;35615;41.410;2.194;2022-12-11T04:46:26;100804.31;;;10.82;35.70
49397;BME280;35615;41.410;2.194;2022-12-11T04:48:56;100797.66;;;10.87;35.21
49397;BME280;35615;41.410;2.194;2022-12-11T04:51:23;100797.03;;;10.94;35.55
49397;BME280;35615;41.410;2.194;2022-12-11T04:53:51;100800.88;;;10.81;35.77
49397;BME280;35615;41.410;2.194;2022-12-11T04:56:18;100797.13;;;10.97;35.74
49397;BME280;35615;41.410;2.194;2022-12-11T04:58:47;100791.97;;;10.97;35.49
49397;BME280;35615;41.410;2.194;2022-12-11T05:01:15;100797.50;;;10.84;35.26
49397;BME280;35615;41.410;2.194;2022-12-11T05:03:43;100795.63;;;11.02;35.30
49397;BME280;35615;41.410;2.194;2022-12-11T05:06:10;100804.72;;;10.92;35.16
49397;BME280;35615;41.410;2.194;2022-12-11T05:08:38;100796.84;;;11.12;35.66
49397;BME280;35615;41.410;2.194;2022-12-11T05:11:07;100787.19;;;11.07;35.26
49397;BME280;35615;41.410;2.194;2022-12-11T05:13:35;100797.63;;;11.09;35.55
49397;BME280;35615;41.410;2.194;2022-12-11T05:16:03;100790.00;;;11.14;35.61
49397;BME280;35615;41.410;2.194;2022-12-11T05:18:30;100788.47;;;11.19;36.21
49397;BME280;35615;41.410;2.194;2022-12-11T05:20:58;100790.13;;;11.17;35.68
49397;BME280;35615;41.410;2.194;2022-12-11T05:23:27;100786.66;;;11.16;35.43
49397;BME280;35615;41.410;2.194;2022-12-11T05:25:55;100782.66;;;11.24;35.90
49397;BME280;35615;41.410;2.194;2022-12-11T05:28:23;100780.41;;;11.10;36.55
49397;BME280;35615;41.410;2.194;2022-12-11T05:30:54;100768.66;;;11.19;36.54
49397;BME280;35615;41.410;2.194;2022-12-11T05:33:21;100771.81;;;11.34;36.42
49397;BME280;35615;41.410;2.194;2022-12-11T05:35:48;100765.31;;;11.22;36.55
49397;BME280;35615;41.410;2.194;2022-12-11T05:38:15;100763.06;;;11.31;36.68
49397;BME280;35615;41.410;2.194;2022-12-11T05:40:43;100761.47;;;11.34;36.57
49397;BME280;35615;41.410;2.194;2022-12-11T05:43:10;100764.53;;;11.24;36.72
49397;BME280;35615;41.410;2.194;2022-12-11T05:45:40;100756.09;;;11.30;37.10
49397;BME280;35615;41.410;2.194;2022-12-11T05:48:07;100746.78;;;11.33;36.84
49397;BME280;35615;41.410;2.194;2022-12-11T05:50:34;100749.06;;;11.26;37.25
49397;BME280;35615;41.410;2.194;2022-12-11T05:53:05;100752.00;;;11.35;37.33
49397;BME280;35615;41.410;2.194;2022-12-11T05:55:33;100747.47;;;11.53;37.19
49397;BME280;35615;41.410;2.194;2022-12-11T05:58:00;100747.34;;;11.50;37.32
49397;BME280;35615;41.410;2.194;2022-12-11T06:00:27;100749.56;;;11.40;37.34
49397;BME280;35615;41.410;2.194;2022-12-11T06:03:01;100750.56;;;11.43;37.74
49397;BME280;35615;41.410;2.194;2022-12-11T06:05:28;100749.09;;;11.51;37.82
49397;BME280;35615;41.410;2.194;2022-12-11T06:07:55;100755.47;;;11.61;37.63
49397;BME280;35615;41.410;2.194;2022-12-11T06:10:22;100752.88;;;11.61;37.74
49397;BME280;35615;41.410;2.194;2022-12-11T06:12:49;100757.44;;;11.68;36.98
49397;BME280;35615;41.410;2.194;2022-12-11T06:15:17;100766.31;;;11.51;37.66
49397;BME280;35615;41.410;2.194;2022-12-11T06:17:44;100764.06;;;11.60;37.83
49397;BME280;35615;41.410;2.194;2022-12-11T06:20:11;100765.03;;;11.63;38.23
49397;BME280;35615;41.410;2.194;2022-12-11T06:22:41;100751.38;;;11.68;38.08
49397;BME280;35615;41.410;2.194;2022-12-11T06:25:08;100749.81;;;11.73;37.81
49397;BME280;35615;41.410;2.194;2022-12-11T06:27:35;100749.13;;;11.77;37.78
49397;BME280;35615;41.410;2.194;2022-12-11T06:30:03;100744.84;;;11.79;38.15
49397;BME280;35615;41.410;2.194;2022-12-11T06:32:30;100747.75;;;11.86;38.00
49397;BME280;35615;41.410;2.194;2022-12-11T06:35:00;100743.50;;;11.88;37.71
49397;BME280;35615;41.410;2.194;2022-12-11T06:37:27;100747.19;;;11.97;39.30
49397;BME280;35615;41.410;2.194;2022-12-11T06:39:53;100746.44;;;11.99;39.48
49397;BME280;35615;41.410;2.194;2022-12-11T06:42:21;100746.16;;;11.91;37.91
49397;BME280;35615;41.410;2.194;2022-12-11T06:44:50;100748.72;;;11.90;38.00
49397;BME280;35615;41.410;2.194;2022-12-11T06:47:17;100744.59;;;11.97;37.82
49397;BME280;35615;41.410;2.194;2022-12-11T06:49:44;100750.78;;;12.00;37.86
49397;BME280;35615;41.410;2.194;2022-12-11T06:52:11;100745.47;;;11.97;38.21
49397;BME280;35615;41.410;2.194;2022-12-11T06:54:44;100740.19;;;11.94;38.10
49397;BME280;35615;41.410;2.194;2022-12-11T06:57:11;100730.19;;;12.05;38.43
49397;BME280;35615;41.410;2.194;2022-12-11T06:59:38;100732.00;;;12.07;38.65
49397;BME280;35615;41.410;2.194;2022-12-11T07:02:05;100739.88;;;12.10;37.74
49397;BME280;35615;41.410;2.194;2022-12-11T07:04:32;100734.78;;;12.13;38.17
49397;BME280;35615;41.410;2.194;2022-12-11T07:07:00;100738.16;;;12.11;38.32
49397;BME280;35615;41.410;2.194;2022-12-11T07:09:27;100740.72;;;12.09;38.40
49397;BME280;35615;41.410;2.194;2022-12-11T07:11:54;100743.22;;;12.08;38.52
49397;BME280;35615;41.410;2.194;2022-12-11T07:14:21;100744.31;;;12.14;38.02
49397;BME280;35615;41.410;2.194;2022-12-11T07:16:49;100733.88;;;12.11;38.61
49397;BME280;35615;41.410;2.194;2022-12-11T07:19:16;100740.31;;;12.24;38.38
49397;BME280;35615;41.410;2.194;2022-12-11T07:21:43;100723.84;;;12.22;38.50
49397;BME280;35615;41.410;2.194;2022-12-11T07:24:11;100723.81;;;12.20;38.73
49397;BME280;35615;41.410;2.194;2022-12-11T07:26:38;100710.03;;;12.21;38.69
49397;BME280;35615;41.410;2.194;2022-12-11T07:29:08;100709.50;;;12.33;38.53
49397;BME280;35615;41.410;2.194;2022-12-11T07:31:35;100711.19;;;12.31;38.69
49397;BME280;35615;41.410;2.194;2022-12-11T07:34:05;100711.34;;;12.37;38.77
49397;BME280;35615;41.410;2.194;2022-12-11T07:36:33;100707.91;;;12.38;38.96
49397;BME280;35615;41.410;2.194;2022-12-11T07:39:00;100713.97;;;12.39;38.37
49397;BME280;35615;41.410;2.194;2022-12-11T07:41:27;100722.59;;;12.38;38.16
49397;BME280;35615;41.410;2.194;2022-12-11T07:44:00;100723.41;;;12.37;38.38
49397;BME280;35615;41.410;2.194;2022-12-11T07:46:30;100722.00;;;12.46;38.30
49397;BME280;35615;41.410;2.194;2022-12-11T07:48:58;100730.56;;;12.44;37.69
49397;BME280;35615;41.410;2.194;2022-12-11T07:51:35;100731.53;;;12.47;37.90
49397;BME280;35615;41.410;2.194;2022-12-11T07:54:08;100743.50;;;12.44;37.70
49397;BME280;35615;41.410;2.194;2022-12-11T07:56:40;100745.50;;;12.53;37.99
49397;BME280;35615;41.410;2.194;2022-12-11T07:59:09;100734.38;;;12.57;38.05
49397;BME280;35615;41.410;2.194;2022-12-11T08:01:37;100734.63;;;12.64;38.42
49397;BME280;35615;41.410;2.194;2022-12-11T08:04:06;100731.91;;;12.61;38.59
49397;BME280;35615;41.410;2.194;2022-12-11T08:06:34;100729.47;;;12.66;37.94
49397;BME280;35615;41.410;2.194;2022-12-11T08:09:05;100727.41;;;12.54;37.93
49397;BME280;35615;41.410;2.194;2022-12-11T08:11:33;100726.91;;;12.66;37.25
49397;BME280;35615;41.410;2.194;2022-12-11T08:14:00;100723.47;;;12.67;37.82
49397;BME280;35615;41.410;2.194;2022-12-11T08:16:31;100729.69;;;12.73;37.99
49397;BME280;35615;41.410;2.194;2022-12-11T08:19:01;100732.22;;;12.72;37.59
49397;BME280;35615;41.410;2.194;2022-12-11T08:21:28;100735.44;;;12.63;37.01
49397;BME280;35615;41.410;2.194;2022-12-11T08:23:55;100722.75;;;12.72;37.22
49397;BME280;35615;41.410;2.194;2022-12-11T08:26:24;100724.94;;;12.59;37.63
49397;BME280;35615;41.410;2.194;2022-12-11T08:28:54;100735.63;;;12.69;37.58
49397;BME280;35615;41.410;2.194;2022-12-11T08:31:22;100728.09;;;12.77;37.40
49397;BME280;35615;41.410;2.194;2022-12-11T08:33:54;100731.66;;;12.82;37.20
49397;BME280;35615;41.410;2.194;2022-12-11T08:36:22;100732.69;;;12.87;37.55
49397;BME280;35615;41.410;2.194;2022-12-11T08:38:50;100742.19;;;12.87;37.35
49397;BME280;35615;41.410;2.194;2022-12-11T08:41:29;100737.16;;;12.93;37.14
49397;BME280;35615;41.410;2.194;2022-12-11T08:43:57;100740.81;;;12.99;37.35
49397;BME280;35615;41.410;2.194;2022-12-11T08:46:27;100742.00;;;13.11;37.36
49397;BME280;35615;41.410;2.194;2022-12-11T08:48:54;100733.38;;;13.12;37.23
49397;BME280;35615;41.410;2.194;2022-12-11T08:51:23;100731.94;;;13.21;37.32
49397;BME280;35615;41.410;2.194;2022-12-11T08:53:53;100733.81;;;13.27;37.28
49397;BME280;35615;41.410;2.194;2022-12-11T08:56:27;100723.47;;;13.28;37.47
49397;BME280;35615;41.410;2.194;2022-12-11T08:58:54;100724.41;;;13.30;37.51
49397;BME280;35615;41.410;2.194;2022-12-11T09:01:23;100720.22;;;13.35;37.46
49397;BME280;35615;41.410;2.194;2022-12-11T09:03:54;100714.28;;;13.41;37.01
49397;BME280;35615;41.410;2.194;2022-12-11T09:06:27;100714.09;;;13.33;36.98
49397;BME280;35615;41.410;2.194;2022-12-11T09:08:59;100722.03;;;13.40;37.06
49397;BME280;35615;41.410;2.194;2022-12-11T09:11:28;100715.81;;;13.33;36.64
49397;BME280;35615;41.410;2.194;2022-12-11T09:13:56;100723.72;;;13.37;37.32
49397;BME280;35615;41.410;2.194;2022-12-11T09:16:33;100737.38;;;13.30;37.11
49397;BME280;35615;41.410;2.194;2022-12-11T09:19:09;100726.28;;;13.36;37.18
49397;BME280;35615;41.410;2.194;2022-12-11T09:21:38;100742.94;;;13.44;36.80
49397;BME280;35615;41.410;2.194;2022-12-11T09:24:09;100737.22;;;13.24;37.18
49397;BME280;35615;41.410;2.194;2022-12-11T09:26:37;100748.13;;;13.44;37.53
49397;BME280;35615;41.410;2.194;2022-12-11T09:29:05;100749.06;;;13.48;36.92
49397;BME280;35615;41.410;2.194;2022-12-11T09:31:34;100743.25;;;13.56;36.57
49397;BME280;35615;41.410;2.194;2022-12-11T09:34:06;100743.25;;;13.56;36.61
49397;BME280;35615;41.410;2.194;2022-12-11T09:36:37;100741.59;;;13.60;36.40
49397;BME280;35615;41.410;2.194;2022-12-11T09:39:05;100742.66;;;13.66;36.69
49397;BME280;35615;41.410;2.194;2022-12-11T09:41:36;100752.59;;;13.50;36.83
49397;BME280;35615;41.410;2.194;2022-12-11T09:46:45;100756.31;;;13.59;36.77
49397;BME280;35615;41.410;2.194;2022-12-11T09:49:55;100748.59;;;13.62;37.16
49397;BME280;35615;41.410;2.194;2022-12-11T09:52:19;100746.78;;;13.60;37.01
49397;BME280;35615;41.410;2.194;2022-12-11T09:54:52;100752.13;;;13.64;36.81
49397;BME280;35615;41.410;2.194;2022-12-11T10:05:12;100751.19;;;13.62;36.77
49397;BME280;35615;41.410;2.194;2022-12-11T10:13:21;100762.50;;;13.64;37.42
49397;BME280;35615;41.410;2.194;2022-12-11T10:18:20;100746.94;;;13.64;36.93
49397;BME280;35615;41.410;2.194;2022-12-11T10:20:52;100737.50;;;13.68;37.13
49397;BME280;35615;41.410;2.194;2022-12-11T10:24:02;100755.59;;;13.65;37.71
49397;BME280;35615;41.410;2.194;2022-12-11T10:26:11;100754.88;;;13.72;37.64
49397;BME280;35615;41.410;2.194;2022-12-11T10:28:41;100756.81;;;13.79;37.45
49397;BME280;35615;41.410;2.194;2022-12-11T10:33:58;100754.78;;;13.68;37.15
49397;BME280;35615;41.410;2.194;2022-12-11T10:36:33;100749.84;;;13.77;37.50
49397;BME280;35615;41.410;2.194;2022-12-11T10:39:19;100734.63;;;13.92;37.41
49397;BME280;35615;41.410;2.194;2022-12-11T10:41:49;100731.25;;;13.96;37.00
49397;BME280;35615;41.410;2.194;2022-12-11T10:44:21;100710.53;;;13.98;37.34
49397;BME280;35615;41.410;2.194;2022-12-11T10:49:35;100716.44;;;14.30;37.29
49397;BME280;35615;41.410;2.194;2022-12-11T10:52:19;100709.03;;;14.45;36.79
49397;BME280;35615;41.410;2.194;2022-12-11T10:54:53;100707.41;;;14.50;36.82
49397;BME280;35615;41.410;2.194;2022-12-11T10:57:28;100705.09;;;14.64;36.82
49397;BME280;35615;41.410;2.194;2022-12-11T10:59:59;100697.25;;;14.62;36.43
49397;BME280;35615;41.410;2.194;2022-12-11T11:02:28;100689.38;;;14.58;36.44
49397;BME280;35615;41.410;2.194;2022-12-11T11:04:58;100677.25;;;14.58;36.49
49397;BME280;35615;41.410;2.194;2022-12-11T11:07:29;100673.22;;;14.74;37.02
49397;BME280;35615;41.410;2.194;2022-12-11T11:10:04;100681.78;;;14.68;36.92
49397;BME280;35615;41.410;2.194;2022-12-11T11:12:35;100683.31;;;14.59;37.06
49397;BME280;35615;41.410;2.194;2022-12-11T11:17:46;100693.53;;;14.92;36.90
49397;BME280;35615;41.410;2.194;2022-12-11T11:20:21;100694.00;;;14.72;37.11
49397;BME280;35615;41.410;2.194;2022-12-11T11:22:50;100689.88;;;14.83;37.27
49397;BME280;35615;41.410;2.194;2022-12-11T11:25:26;100671.69;;;14.85;37.66
49397;BME280;35615;41.410;2.194;2022-12-11T11:28:05;100666.44;;;14.82;37.51
49397;BME280;35615;41.410;2.194;2022-12-11T11:30:37;100658.09;;;14.97;37.62
49397;BME280;35615;41.410;2.194;2022-12-11T11:33:17;100648.47;;;14.94;37.79
49397;BME280;35615;41.410;2.194;2022-12-11T11:35:56;100653.69;;;14.96;37.63
49397;BME280;35615;41.410;2.194;2022-12-11T11:38:34;100649.34;;;14.95;37.11
49397;BME280;35615;41.410;2.194;2022-12-11T11:41:03;100652.06;;;14.99;36.94
49397;BME280;35615;41.410;2.194;2022-12-11T11:43:44;100643.50;;;15.06;37.21
49397;BME280;35615;41.410;2.194;2022-12-11T11:46:19;100635.84;;;15.14;37.18
49397;BME280;35615;41.410;2.194;2022-12-11T11:48:56;100631.66;;;15.22;36.89
49397;BME280;35615;41.410;2.194;2022-12-11T11:51:28;100641.25;;;15.26;36.96
49397;BME280;35615;41.410;2.194;2022-12-11T11:53:58;100640.66;;;15.41;36.81
49397;BME280;35615;41.410;2.194;2022-12-11T11:56:27;100632.06;;;15.48;36.79
49397;BME280;35615;41.410;2.194;2022-12-11T12:01:46;100643.41;;;15.52;36.76
49397;BME280;35615;41.410;2.194;2022-12-11T12:04:16;100643.47;;;15.55;36.83
49397;BME280;35615;41.410;2.194;2022-12-11T12:09:41;100626.22;;;15.60;36.57
49397;BME280;35615;41.410;2.194;2022-12-11T12:12:21;100588.16;;;15.68;36.76
49397;BME280;35615;41.410;2.194;2022-12-11T12:15:20;100583.16;;;15.83;36.50
49397;BME280;35615;41.410;2.194;2022-12-11T12:17:54;100589.63;;;16.11;35.84
49397;BME280;35615;41.410;2.194;2022-12-11T12:20:32;100590.41;;;16.06;36.97
49397;BME280;35615;41.410;2.194;2022-12-11T12:23:07;100588.88;;;16.18;36.62
49397;BME280;35615;41.410;2.194;2022-12-11T12:25:43;100597.75;;;16.37;36.48
49397;BME280;35615;41.410;2.194;2022-12-11T12:43:44;100573.91;;;16.78;36.59
49397;BME280;35615;41.410;2.194;2022-12-11T12:48:47;100553.03;;;16.75;36.71
49397;BME280;35615;41.410;2.194;2022-12-11T12:51:15;100552.19;;;16.77;37.73
49397;BME280;35615;41.410;2.194;2022-12-11T12:53:57;100551.34;;;16.81;37.82
49397;BME280;35615;41.410;2.194;2022-12-11T12:56:29;100548.69;;;16.74;37.86
49397;BME280;35615;41.410;2.194;2022-12-11T12:58:57;100554.69;;;16.68;37.64
49397;BME280;35615;41.410;2.194;2022-12-11T13:01:29;100554.53;;;16.54;37.53
49397;BME280;35615;41.410;2.194;2022-12-11T13:04:05;100553.56;;;16.48;38.03
49397;BME280;35615;41.410;2.194;2022-12-11T13:06:42;100540.34;;;16.30;38.15
49397;BME280;35615;41.410;2.194;2022-12-11T13:09:21;100543.75;;;16.24;38.38
49397;BME280;35615;41.410;2.194;2022-12-11T13:11:50;100528.31;;;16.41;38.85
49397;BME280;35615;41.410;2.194;2022-12-11T13:14:30;100520.53;;;16.45;38.97
49397;BME280;35615;41.410;2.194;2022-12-11T13:17:07;100513.69;;;16.58;38.95
49397;BME280;35615;41.410;2.194;2022-12-11T13:19:34;100514.63;;;16.65;38.64
49397;BME280;35615;41.410;2.194;2022-12-11T13:24:45;100510.44;;;16.76;38.22
49397;BME280;35615;41.410;2.194;2022-12-11T13:27:24;100498.13;;;16.66;38.37
49397;BME280;35615;41.410;2.194;2022-12-11T13:29:51;100473.84;;;16.68;38.57
49397;BME280;35615;41.410;2.194;2022-12-11T13:32:30;100471.94;;;16.55;38.16
49397;BME280;35615;41.410;2.194;2022-12-11T13:34:58;100468.47;;;16.54;38.98
49397;BME280;35615;41.410;2.194;2022-12-11T13:37:37;100457.91;;;16.41;39.32
49397;BME280;35615;41.410;2.194;2022-12-11T13:40:20;100452.75;;;16.48;39.28
49397;BME280;35615;41.410;2.194;2022-12-11T13:42:53;100457.94;;;16.44;38.81
49397;BME280;35615;41.410;2.194;2022-12-11T13:45:28;100445.75;;;16.44;38.45
49397;BME280;35615;41.410;2.194;2022-12-11T13:47:58;100453.50;;;16.38;38.32
49397;BME280;35615;41.410;2.194;2022-12-11T13:50:32;100453.38;;;16.23;38.72
49397;BME280;35615;41.410;2.194;2022-12-11T13:53:01;100443.91;;;16.30;39.01
49397;BME280;35615;41.410;2.194;2022-12-11T13:55:30;100430.81;;;16.28;38.79
49397;BME280;35615;41.410;2.194;2022-12-11T13:57:58;100444.78;;;16.30;38.79
49397;BME280;35615;41.410;2.194;2022-12-11T14:00:26;100435.13;;;16.23;39.14
49397;BME280;35615;41.410;2.194;2022-12-11T14:03:04;100433.41;;;16.26;38.50
49397;BME280;35615;41.410;2.194;2022-12-11T14:05:36;100436.91;;;16.27;38.38
49397;BME280;35615;41.410;2.194;2022-12-11T14:08:05;100442.97;;;16.27;38.84
49397;BME280;35615;41.410;2.194;2022-12-11T14:10:38;100450.56;;;16.06;38.75
49397;BME280;35615;41.410;2.194;2022-12-11T14:13:06;100449.75;;;16.09;38.74
49397;BME280;35615;41.410;2.194;2022-12-11T14:15:43;100448.03;;;16.09;39.09
49397;BME280;35615;41.410;2.194;2022-12-11T14:18:16;100451.50;;;16.10;39.61